Time;durP1;ratioP1;P1;durP2;ratioP2;P2;SDS_P1;SDS_P2;PMS_P1;PMS_P2;Temp;Humidity;BMP_temperature;BMP_pressure;BME280_temperature;BME280_humidity;BME280_pressure;Samples;Min_cycle;Max_cycle;Signal;HPM_P1;HPM_P2
2022/10/31 00:01:39;;;;;;;7.28;3.22;;;14.20;92.00;;;17.18;53.20;98069.41;4907683;29;20058;-51
2022/10/31 00:04:07;;;;;;;7.60;3.60;;;14.20;91.80;;;17.17;53.01;98073.13;4905813;29;20381;-53
2022/10/31 00:06:35;;;;;;;11.23;3.80;;;14.10;91.90;;;17.17;53.07;98070.41;4907244;29;20056;-53
2022/10/31 00:09:05;;;;;;;6.45;3.72;;;14.10;92.10;;;17.16;52.77;98069.59;4907334;29;20055;-51
2022/10/31 00:11:33;;;;;;;6.30;3.33;;;14.10;91.70;;;17.17;52.87;98068.56;4907516;29;20250;-53
2022/10/31 00:14:01;;;;;;;6.90;3.17;;;14.20;91.30;;;17.12;52.95;98077.22;4906679;29;20048;-53
2022/10/31 00:16:30;;;;;;;7.50;3.85;;;14.10;91.50;;;17.08;53.01;98073.25;4907447;29;20052;-51
2022/10/31 00:19:02;;;;;;;5.18;3.38;;;14.00;91.50;;;17.07;52.97;98076.94;4907410;29;20360;-54
2022/10/31 00:21:31;;;;;;;6.65;3.38;;;14.00;91.70;;;17.06;53.03;98071.75;4907405;29;20048;-50
2022/10/31 00:24:00;;;;;;;9.85;4.65;;;14.00;91.60;;;17.06;52.89;98071.75;4905504;29;20117;-55
2022/10/31 00:26:30;;;;;;;7.32;3.35;;;14.00;91.50;;;17.04;52.96;98069.28;4907363;29;20056;-55
2022/10/31 00:28:59;;;;;;;7.28;3.60;;;14.00;91.20;;;17.05;53.01;98068.25;4907285;29;20059;-50
2022/10/31 00:31:28;;;;;;;9.20;3.80;;;14.00;91.00;;;17.03;53.00;98070.28;4890836;29;20079;-51
2022/10/31 00:33:58;;;;;;;8.07;3.13;;;14.00;91.10;;;17.02;53.06;98073.16;4906623;29;20063;-51
2022/10/31 00:36:27;;;;;;;8.45;3.08;;;13.90;91.20;;;17.03;53.04;98070.28;4905870;29;20055;-52
2022/10/31 00:38:55;;;;;;;6.25;3.20;;;14.00;91.30;;;17.02;52.88;98067.78;4906022;29;20242;-50
2022/10/31 00:41:24;;;;;;;6.03;2.95;;;14.00;91.30;;;16.99;53.13;98068.19;4905486;29;20052;-54
2022/10/31 00:43:52;;;;;;;4.40;2.80;;;13.90;91.40;;;16.96;53.02;98066.69;4905332;29;20079;-52
2022/10/31 00:46:20;;;;;;;9.25;3.03;;;13.90;91.60;;;16.94;53.01;98066.06;4921058;29;20063;-53
2022/10/31 00:48:50;;;;;;;4.88;3.00;;;13.90;91.50;;;16.92;52.94;98065.41;4906832;29;20052;-52
2022/10/31 00:51:19;;;;;;;7.05;4.22;;;13.90;91.30;;;16.94;53.25;98063.38;4906869;29;20048;-52
2022/10/31 00:53:47;;;;;;;5.25;3.50;;;13.90;91.60;;;16.95;52.81;98065.06;4890059;29;20053;-54
2022/10/31 00:56:15;;;;;;;6.30;3.40;;;13.90;91.20;;;16.95;53.01;98059.66;4905683;29;20056;-52
2022/10/31 00:58:43;;;;;;;5.25;3.20;;;14.00;91.10;;;16.97;52.94;98067.56;4906160;29;20067;-54
2022/10/31 01:01:11;;;;;;;7.38;3.42;;;14.00;90.90;;;16.96;52.96;98063.19;4905577;29;20060;-52
2022/10/31 01:03:40;;;;;;;7.95;4.85;;;13.90;90.80;;;16.93;53.00;98059.84;4890098;29;20056;-50
2022/10/31 01:06:13;;;;;;;5.80;3.65;;;13.90;91.00;;;16.96;53.03;98057.81;4921229;29;20056;-54
2022/10/31 01:08:41;;;;;;;7.05;3.42;;;13.90;90.90;;;16.93;52.64;98059.84;4921479;29;20052;-54
2022/10/31 01:11:31;;;;;;;5.53;3.50;;;13.90;91.10;;;16.96;53.10;98057.81;4905743;29;20059;-52
2022/10/31 01:13:59;;;;;;;4.30;2.95;;;13.90;90.80;;;17.00;52.71;98064.47;4906350;29;20052;-52
2022/10/31 01:16:29;;;;;;;6.80;3.28;;;14.00;90.70;;;16.99;52.68;98060.94;4921701;29;20056;-52
2022/10/31 01:18:58;;;;;;;6.00;3.45;;;14.00;90.60;;;17.00;52.83;98048.31;4907786;29;20061;-55
2022/10/31 01:21:29;;;;;;;10.43;3.72;;;14.00;90.50;;;17.01;52.81;98060.75;4909390;29;20052;-50
2022/10/31 01:24:01;;;;;;;6.07;3.28;;;14.00;90.40;;;17.01;52.66;98050.00;4909877;29;20063;-54
2022/10/31 01:26:32;;;;;;;7.93;3.30;;;14.00;90.20;;;17.00;52.88;98056.41;4894185;29;20064;-53
2022/10/31 01:29:04;;;;;;;7.30;2.97;;;14.00;90.20;;;16.99;52.93;98046.69;4910375;29;20052;-54
2022/10/31 01:31:37;;;;;;;7.97;3.50;;;14.00;90.00;;;16.94;52.89;98047.22;4909032;29;20052;-55
2022/10/31 01:34:06;;;;;;;7.68;3.22;;;13.90;90.70;;;16.97;52.78;98054.94;4908865;29;20049;-48
2022/10/31 01:36:37;;;;;;;6.68;3.10;;;14.00;90.40;;;16.96;52.90;98053.25;4910275;29;20057;-50
2022/10/31 01:39:13;;;;;;;5.40;3.63;;;14.00;90.30;;;16.97;53.02;98049.56;4908484;29;20060;-50
2022/10/31 01:41:48;;;;;;;7.90;3.40;;;14.00;90.30;;;16.99;52.99;98041.28;4925102;29;20282;-50
2022/10/31 01:44:16;;;;;;;9.10;4.22;;;14.00;90.20;;;16.94;52.94;98052.63;4924087;29;20066;-50
2022/10/31 01:46:50;;;;;;;7.18;3.67;;;13.90;90.30;;;16.89;52.93;98053.19;4907734;29;20365;-50
2022/10/31 01:49:28;;;;;;;6.63;3.15;;;13.90;90.90;;;16.86;53.24;98053.56;4907786;29;20343;-50
2022/10/31 01:52:24;;;;;;;4.97;3.00;;;13.80;91.10;;;16.83;52.95;98051.28;4910210;29;20373;-50
2022/10/31 01:54:58;;;;;;;8.60;3.53;;;13.80;91.40;;;16.84;53.10;98052.09;4909584;29;20079;-53
2022/10/31 01:57:28;;;;;;;7.15;3.30;;;13.70;91.60;;;16.82;52.81;98051.47;4909759;29;20052;-53
2022/10/31 02:00:04;;;;;;;8.10;3.45;;;13.70;91.60;;;16.79;53.08;98055.34;4909144;29;20048;-51
2022/10/31 02:02:41;;;;;;;6.30;3.25;;;13.70;91.30;;;16.71;52.94;98048.22;4911156;29;20384;-51
2022/10/31 02:05:19;;;;;;;5.32;2.85;;;13.60;91.60;;;16.69;53.16;98049.44;4891931;29;20052;-52
2022/10/31 02:08:18;;;;;;;5.50;3.05;;;13.60;91.80;;;16.66;53.07;98056.03;4908689;29;20045;-51
2022/10/31 02:10:49;;;;;;;6.68;3.20;;;13.60;92.00;;;16.64;53.17;98047.31;4910105;29;20373;-49
2022/10/31 02:13:19;;;;;;;5.53;3.13;;;13.50;92.10;;;16.57;53.32;98051.78;4908632;29;20056;-53
2022/10/31 02:15:56;;;;;;;5.95;3.95;;;13.50;92.30;;;16.54;53.39;98054.88;4892973;29;20066;-53
2022/10/31 02:18:30;;;;;;;7.63;3.45;;;13.50;92.40;;;16.50;53.45;98048.22;4908484;29;20056;-49
2022/10/31 02:21:37;;;;;;;6.70;3.08;;;13.40;92.30;;;16.49;53.17;98055.41;4908389;29;20052;-51
2022/10/31 02:24:47;;;;;;;5.90;2.88;;;13.40;92.20;;;16.47;53.39;98048.56;4923893;29;20052;-54
2022/10/31 02:27:41;;;;;;;7.63;3.03;;;13.40;92.20;;;16.42;53.58;98050.97;4924130;29;20059;-51
2022/10/31 02:30:18;;;;;;;5.28;3.38;;;13.30;92.40;;;16.39;53.45;98056.75;4908787;29;20055;-55
2022/10/31 02:33:22;;;;;;;6.55;3.38;;;13.30;92.50;;;16.36;53.49;98049.06;4923750;29;20059;-53
2022/10/31 02:36:14;;;;;;;6.00;3.15;;;13.30;92.70;;;16.41;53.46;98049.34;4908012;29;20058;-54
2022/10/31 02:39:23;;;;;;;4.90;3.25;;;13.30;92.30;;;16.41;53.31;98049.34;4892128;29;20068;-50
2022/10/31 02:42:23;;;;;;;7.30;3.50;;;13.40;91.60;;;16.40;53.33;98045.81;4908722;29;20052;-51
2022/10/31 02:45:21;;;;;;;6.20;3.55;;;13.30;91.90;;;16.39;53.35;98046.81;4894281;29;20052;-52
2022/10/31 02:47:54;;;;;;;7.10;3.50;;;13.30;91.70;;;16.38;53.48;98041.63;4922938;29;20053;-52
2022/10/31 02:50:28;;;;;;;;;;;13.30;91.70;;;16.45;53.00;98037.19;4893685;29;20049;-52
2022/10/31 02:52:56;;;;;;;5.35;2.83;;;13.30;91.00;;;16.43;52.95;98039.22;4907652;29;19919;-54
2022/10/31 02:55:25;;;;;;;4.95;2.45;;;13.30;91.40;;;16.38;52.98;98037.13;4923242;29;20257;-53
2022/10/31 02:58:04;;;;;;;4.63;2.83;;;13.30;91.20;;;16.41;53.12;98034.03;4923384;29;20053;-53
2022/10/31 03:00:49;;;;;;;5.90;3.25;;;13.40;90.80;;;16.42;53.10;98033.03;4907909;29;20242;-51
2022/10/31 03:03:47;;;;;;;5.22;3.20;;;13.40;90.50;;;16.40;52.83;98028.84;4908443;29;20056;-53
2022/10/31 03:06:47;;;;;;;5.68;3.40;;;13.30;90.40;;;16.35;53.16;98032.09;4893698;29;20063;-53
2022/10/31 03:09:48;;;;;;;8.88;3.10;;;13.30;90.40;;;16.37;53.40;98035.44;4908400;29;20246;-53
2022/10/31 03:12:44;;;;;;;7.93;3.22;;;13.40;90.70;;;16.43;52.87;98039.22;4907776;29;20049;-53
2022/10/31 03:15:34;;;;;;;6.88;3.15;;;13.40;90.40;;;16.42;52.85;98041.09;4922561;29;20048;-54
2022/10/31 03:18:26;;;;;;;4.85;2.80;;;13.40;90.20;;;16.43;52.96;98044.59;4907503;29;20063;-51
2022/10/31 03:21:14;;;;;;;8.90;3.30;;;13.40;90.10;;;16.41;52.64;98041.28;4909308;29;20056;-51
2022/10/31 03:23:46;;;;;;;7.15;3.85;;;13.40;90.10;;;16.40;52.58;98050.34;4891111;29;20048;-53
2022/10/31 03:26:22;;;;;;;6.20;3.10;;;13.40;90.00;;;16.41;52.75;98043.97;4907997;29;20235;-55
2022/10/31 03:29:02;;;;;;;13.63;3.95;;;13.40;89.70;;;16.40;52.58;98042.28;4907459;29;20262;-54
2022/10/31 03:31:41;;;;;;;4.20;2.88;;;13.40;89.70;;;16.37;53.02;98038.13;4908443;29;20242;-51
2022/10/31 03:34:11;;;;;;;4.82;2.85;;;13.40;89.60;;;16.35;52.68;98040.16;4891323;29;20059;-51
2022/10/31 03:36:41;;;;;;;7.07;3.25;;;13.30;89.70;;;16.34;52.98;98039.34;4891510;29;20355;-52
2022/10/31 03:39:14;;;;;;;5.68;2.40;;;13.30;89.70;;;16.35;52.94;98040.16;4891621;29;20347;-54
2022/10/31 03:41:53;;;;;;;3.80;3.25;;;13.30;89.80;;;16.30;52.91;98040.75;4905981;29;20056;-53
2022/10/31 03:44:23;;;;;;;5.15;3.15;;;13.30;90.10;;;16.32;53.07;98041.38;4891883;29;20083;-53
2022/10/31 03:46:59;;;;;;;6.85;3.13;;;13.30;90.30;;;16.29;52.87;98036.38;4907134;29;20056;-54
2022/10/31 03:49:28;;;;;;;9.50;3.47;;;13.20;90.40;;;16.29;52.93;98039.06;4891399;29;20053;-50
2022/10/31 03:52:35;;;;;;;4.25;2.67;;;13.30;90.60;;;16.27;52.95;98035.72;4891284;29;20271;-55
2022/10/31 03:55:30;;;;;;;4.55;3.05;;;13.30;90.30;;;16.27;52.89;98037.59;4906461;29;20053;-53
2022/10/31 03:58:07;;;;;;;4.78;3.10;;;13.20;90.40;;;16.28;52.81;98039.25;4908101;29;20052;-54
2022/10/31 04:00:42;;;;;;;6.70;3.25;;;13.20;90.30;;;16.27;52.96;98034.91;4905815;29;20062;-52
2022/10/31 04:03:21;;;;;;;8.70;3.00;;;13.20;90.10;;;16.27;52.64;98037.59;4906689;29;20078;-53
2022/10/31 04:05:54;;;;;;;5.68;3.22;;;13.20;89.90;;;16.24;52.83;98030.72;4891233;29;20063;-51
2022/10/31 04:08:31;;;;;;;6.75;3.17;;;13.20;90.00;;;16.25;52.93;98029.72;4890688;29;20363;-55
2022/10/31 04:11:02;;;;;;;5.97;3.30;;;13.30;90.20;;;16.25;52.76;98034.25;4922237;29;20052;-52
2022/10/31 04:13:35;;;;;;;4.28;2.65;;;13.20;90.00;;;16.23;52.85;98034.44;4890938;29;20059;-53
2022/10/31 04:16:11;;;;;;;7.60;4.25;;;13.20;90.10;;;16.24;52.77;98032.59;4906283;29;20070;-53
2022/10/31 04:18:44;;;;;;;7.10;3.50;;;13.20;90.00;;;16.23;52.83;98031.75;4891846;29;20351;-50
2022/10/31 04:21:12;;;;;;;8.90;4.15;;;13.20;90.00;;;16.22;53.09;98023.88;4890880;29;20066;-49
2022/10/31 04:23:40;;;;;;;6.18;2.97;;;13.20;90.20;;;16.22;53.01;98021.19;4906551;29;20060;-51
2022/10/31 04:26:16;;;;;;;4.10;3.15;;;13.20;90.40;;;16.21;52.79;98016.88;4921597;29;20057;-54
2022/10/31 04:28:44;;;;;;;7.45;4.18;;;13.20;90.30;;;16.19;52.95;98021.56;4906944;29;20056;-52
2022/10/31 04:31:14;;;;;;;6.10;3.47;;;13.20;90.30;;;16.19;52.95;98018.88;4921751;29;20052;-53
2022/10/31 04:33:44;;;;;;;10.25;3.70;;;13.20;90.40;;;16.17;52.81;98012.84;4905241;29;20285;-52
2022/10/31 04:36:12;;;;;;;5.95;3.35;;;13.10;90.50;;;16.14;53.10;98012.22;4907240;29;20350;-53
2022/10/31 04:38:42;;;;;;;7.63;3.80;;;13.10;91.00;;;16.15;53.14;98013.06;4905089;29;20055;-54
2022/10/31 04:41:22;;;;;;;6.38;3.60;;;13.00;90.90;;;16.11;52.97;98001.00;4906060;29;20048;-49
2022/10/31 04:43:58;;;;;;;10.60;5.25;;;13.00;91.00;;;16.08;53.04;98007.59;4906728;29;20057;-53
2022/10/31 04:46:27;;;;;;;6.88;3.70;;;13.00;91.20;;;16.05;53.17;98001.78;4905089;29;20056;-53
2022/10/31 04:48:57;;;;;;;7.65;4.70;;;13.00;91.60;;;16.06;53.16;98000.75;4904291;29;20122;-53
2022/10/31 04:51:25;;;;;;;5.32;3.78;;;13.00;91.40;;;16.03;53.33;97995.75;4907023;29;20261;-52
2022/10/31 04:53:54;;;;;;;8.32;4.85;;;13.00;91.50;;;16.01;53.16;98005.84;4905319;29;20053;-54
2022/10/31 04:56:28;;;;;;;9.90;5.43;;;12.90;91.70;;;15.98;53.60;98004.38;4910102;29;20270;-52
2022/10/31 04:58:59;;;;;;;10.70;6.70;;;12.90;92.30;;;15.98;53.41;97992.81;4906795;29;20041;-52
2022/10/31 05:01:31;;;;;;;8.52;5.25;;;12.90;92.20;;;15.99;53.30;97995.28;4920527;29;20367;-51
2022/10/31 05:04:01;;;;;;;7.40;4.15;;;12.90;92.20;;;15.94;53.66;97995.88;4905607;29;20048;-52
2022/10/31 05:06:31;;;;;;;5.65;3.92;;;12.80;92.60;;;15.93;53.68;97991.50;4905685;29;20243;-51
2022/10/31 05:08:59;;;;;;;6.35;4.72;;;12.80;92.60;;;15.96;53.59;98000.22;4905898;29;20103;-54
2022/10/31 05:11:28;;;;;;;6.43;4.82;;;12.90;92.70;;;15.93;53.89;97990.66;4905297;29;20056;-53
2022/10/31 05:14:07;;;;;;;4.90;3.60;;;12.90;92.60;;;15.93;53.53;97996.88;4905023;29;20057;-51
2022/10/31 05:16:53;;;;;;;7.50;4.15;;;12.90;92.40;;;15.92;53.61;97994.41;4909851;29;20051;-54
2022/10/31 05:19:41;;;;;;;5.32;3.70;;;12.80;92.40;;;15.91;53.76;97987.34;4896480;29;20056;-51
2022/10/31 05:22:36;;;;;;;6.78;3.80;;;12.80;92.50;;;15.90;53.75;97989.22;4906049;29;20060;-51
2022/10/31 05:25:05;;;;;;;10.35;3.92;;;12.80;92.40;;;15.86;53.73;97992.47;4905085;29;20285;-51
2022/10/31 05:27:33;;;;;;;5.25;4.03;;;12.80;92.50;;;15.83;53.51;97990.97;4921261;29;20071;-51
2022/10/31 05:30:01;;;;;;;6.70;3.90;;;12.70;92.30;;;15.79;53.75;97983.47;4905586;29;20049;-49
2022/10/31 05:32:39;;;;;;;9.13;3.88;;;12.70;92.50;;;15.77;53.86;97978.28;4905215;29;20118;-51
2022/10/31 05:35:31;;;;;;;6.43;4.05;;;12.70;92.70;;;15.78;53.56;97974.59;4905289;29;20063;-53
2022/10/31 05:38:24;;;;;;;7.85;3.72;;;12.70;92.80;;;15.73;53.58;97977.00;4892678;29;20055;-54
2022/10/31 05:40:59;;;;;;;7.32;4.03;;;12.60;93.60;;;15.68;53.79;97980.22;4921281;29;20066;-49
2022/10/31 05:43:30;;;;;;;6.45;3.17;;;12.60;92.70;;;15.67;53.91;97983.09;4920925;29;20052;-52
2022/10/31 05:45:59;;;;;;;8.23;4.47;;;12.60;92.90;;;15.64;53.74;97978.91;4890043;29;20060;-53
2022/10/31 05:48:47;;;;;;;7.05;4.70;;;12.60;92.60;;;15.62;53.98;97977.44;4895884;29;20246;-54
2022/10/31 05:51:35;;;;;;;6.95;4.25;;;12.50;92.90;;;15.58;53.87;97979.66;4886616;29;20254;-50
2022/10/31 05:54:04;;;;;;;9.50;3.85;;;12.50;93.20;;;15.58;53.92;97974.28;4920628;29;20056;-54
2022/10/31 05:56:33;;;;;;;11.05;3.55;;;12.50;93.30;;;15.58;53.91;97966.22;4920263;29;20060;-52
2022/10/31 05:59:01;;;;;;;6.78;3.60;;;12.50;93.20;;;15.60;53.64;97974.91;4906161;29;20247;-51
2022/10/31 06:01:29;;;;;;;6.10;3.70;;;12.50;92.80;;;15.59;53.65;97973.28;4904955;29;20052;-54
2022/10/31 06:04:04;;;;;;;5.28;3.60;;;12.50;92.60;;;15.58;53.56;97974.28;4921058;29;20052;-52
2022/10/31 06:06:34;;;;;;;7.13;3.60;;;12.50;92.70;;;15.58;53.79;97974.28;4908331;29;20054;-50
2022/10/31 06:09:02;;;;;;;7.25;4.20;;;12.50;93.00;;;15.55;53.73;97974.66;4908661;29;20052;-53
2022/10/31 06:11:34;;;;;;;6.28;4.22;;;12.50;92.90;;;15.50;54.09;97967.16;4924002;29;20051;-53
2022/10/31 06:14:03;;;;;;;9.02;4.30;;;12.40;92.80;;;15.48;53.92;97976.41;4908035;29;20055;-53
2022/10/31 06:16:57;;;;;;;4.88;3.33;;;12.40;93.10;;;15.47;54.02;97966.69;4909586;29;20062;-52
2022/10/31 06:19:51;;;;;;;9.50;4.57;;;12.40;93.20;;;15.48;53.75;97971.03;4908483;29;20075;-53
2022/10/31 06:22:22;;;;;;;8.80;4.80;;;12.30;93.20;;;15.48;53.72;97971.03;4908180;29;20358;-52
2022/10/31 06:24:50;;;;;;;8.65;4.78;;;12.40;93.30;;;15.47;53.67;97974.72;4923406;29;20063;-54
2022/10/31 06:27:26;;;;;;;12.18;4.90;;;12.40;92.80;;;15.42;54.05;97966.41;4908543;29;20250;-53
2022/10/31 06:30:03;;;;;;;10.25;4.70;;;12.30;93.10;;;15.40;54.02;97968.47;4893615;29;20051;-51
2022/10/31 06:32:32;;;;;;;6.38;3.70;;;12.30;93.70;;;15.41;54.17;97970.09;4892873;29;20347;-52
2022/10/31 06:35:00;;;;;;;8.23;3.90;;;12.30;93.60;;;15.39;54.16;97969.47;4907568;29;20155;-50
2022/10/31 06:37:29;;;;;;;9.70;3.97;;;12.30;93.80;;;15.41;54.23;97965.59;4923592;29;20058;-53
2022/10/31 06:40:05;;;;;;;9.90;4.85;;;12.30;93.80;;;15.45;54.02;97968.72;4907863;29;20058;-52
2022/10/31 06:43:00;;;;;;;8.68;4.43;;;12.40;93.70;;;15.50;54.02;97963.63;4907795;29;20056;-55
2022/10/31 06:45:30;;;;;;;9.35;4.68;;;12.40;93.50;;;15.52;54.00;97966.97;4908015;29;20053;-50
2022/10/31 06:48:16;;;;;;;12.20;4.00;;;12.40;93.10;;;15.54;53.74;97968.44;4911860;29;20059;-51
2022/10/31 06:51:23;;;;;;;7.15;3.95;;;12.50;93.10;;;15.59;53.94;97970.59;4888115;29;20072;-55
2022/10/31 06:53:51;;;;;;;9.55;3.83;;;12.50;93.20;;;15.58;54.08;97973.44;4871934;29;20053;-52
2022/10/31 06:56:20;;;;;;;7.93;4.63;;;12.60;93.10;;;15.61;54.20;97970.41;4897580;29;20044;-52
2022/10/31 06:58:52;;;;;;;7.68;4.57;;;12.60;93.90;;;15.63;54.21;97971.88;4907390;29;20044;-53
2022/10/31 07:01:34;;;;;;;13.23;5.72;;;12.60;93.30;;;15.65;54.20;97974.38;4907239;29;20056;-54
2022/10/31 07:04:03;;;;;;;10.07;5.97;;;12.60;93.50;;;15.65;54.24;97979.75;4906869;29;20059;-51
2022/10/31 07:06:35;;;;;;;9.98;5.00;;;12.60;93.70;;;15.68;54.62;97982.91;4923705;29;20058;-53
2022/10/31 07:09:03;;;;;;;9.45;6.13;;;12.70;94.00;;;15.72;54.42;97978.81;4908430;29;20057;-52
2022/10/31 07:11:33;;;;;;;10.23;5.22;;;12.70;93.90;;;15.74;54.55;97984.88;4908307;29;20246;-51
2022/10/31 07:14:03;;;;;;;6.95;5.25;;;12.80;93.70;;;15.68;54.75;97988.28;4922618;29;20049;-54
2022/10/31 07:16:31;;;;;;;8.77;7.75;;;12.70;94.50;;;15.69;55.22;97991.78;4907102;29;20059;-51
2022/10/31 07:19:00;;;;;;;12.30;6.88;;;12.70;95.20;;;15.73;54.97;97993.94;4907349;29;20055;-50
2022/10/31 07:21:29;;;;;;;9.30;4.95;;;12.70;96.00;;;15.78;54.94;97992.53;4906591;29;20059;-53
2022/10/31 07:23:57;;;;;;;12.85;6.03;;;12.80;95.20;;;15.82;54.89;97988.47;4922708;29;20084;-50
2022/10/31 07:26:45;;;;;;;7.97;5.22;;;12.90;95.20;;;15.88;54.88;97996.63;4913039;29;20051;-53
2022/10/31 07:29:14;;;;;;;8.88;5.38;;;12.90;95.00;;;15.91;55.01;97995.41;4923345;29;20056;-51
2022/10/31 07:31:45;;;;;;;11.90;5.28;;;13.00;95.00;;;15.95;54.99;97996.69;4921938;29;20049;-55
2022/10/31 07:34:19;;;;;;;7.97;5.07;;;13.10;94.90;;;16.01;54.89;97995.94;4907463;29;20049;-49
2022/10/31 07:37:06;;;;;;;8.90;4.30;;;13.10;94.60;;;16.04;54.78;98002.81;4912753;29;20051;-54
2022/10/31 07:39:35;;;;;;;9.27;4.85;;;13.10;94.60;;;16.06;54.86;97998.06;4907044;29;20067;-53
2022/10/31 07:42:04;;;;;;;9.00;4.60;;;13.10;94.60;;;16.07;54.76;98003.28;4922174;29;20060;-52
2022/10/31 07:44:33;;;;;;;8.60;5.20;;;13.20;94.30;;;16.12;54.91;98003.50;4906237;29;20053;-51
2022/10/31 07:47:48;;;;;;;12.50;4.95;;;13.20;94.50;;;16.17;54.71;98000.28;4895947;29;20067;-54
2022/10/31 07:50:35;;;;;;;8.88;5.72;;;13.20;94.80;;;16.21;54.70;98006.13;4909579;29;20041;-52
2022/10/31 07:53:22;;;;;;;12.30;5.68;;;13.20;94.60;;;16.23;54.84;98002.22;4907649;29;20056;-54
2022/10/31 07:55:54;;;;;;;10.63;6.30;;;13.30;94.80;;;16.26;54.81;97998.31;4922238;29;20249;-49
2022/10/31 07:58:28;;;;;;;13.32;7.75;;;13.30;94.80;;;16.33;54.62;98004.59;4922153;29;20052;-54
2022/10/31 08:00:59;;;;;;;10.10;6.68;;;13.40;94.60;;;16.40;54.76;97999.28;4906611;29;20054;-52
2022/10/31 08:03:37;;;;;;;13.65;7.20;;;13.50;94.60;;;16.47;54.75;98001.03;4906064;29;20056;-51
2022/10/31 08:06:23;;;;;;;14.20;5.80;;;13.60;94.40;;;16.54;54.82;98006.50;4911695;29;20045;-51
2022/10/31 08:08:51;;;;;;;10.90;5.30;;;13.70;94.40;;;16.60;54.78;97997.66;4907238;29;20050;-49
2022/10/31 08:11:20;;;;;;;10.57;5.75;;;13.80;94.10;;;16.67;54.94;97995.03;4906416;29;20048;-49
2022/10/31 08:13:48;;;;;;;7.78;4.57;;;13.90;93.70;;;16.76;54.79;97995.75;4905162;29;20107;-49
2022/10/31 08:16:16;;;;;;;8.55;4.68;;;14.00;93.60;;;16.81;54.79;97990.59;4921328;29;20063;-53
2022/10/31 08:18:58;;;;;;;8.35;4.65;;;14.00;93.70;;;16.87;54.72;97984.50;4906332;29;20055;-54
2022/10/31 08:21:29;;;;;;;8.70;4.47;;;14.00;93.60;;;16.91;54.69;97983.91;4921757;29;20053;-51
2022/10/31 08:23:58;;;;;;;5.95;3.90;;;14.10;93.50;;;16.96;54.42;97980.63;4906030;29;20058;-52
2022/10/31 08:26:29;;;;;;;7.38;4.10;;;14.10;92.80;;;17.02;54.42;97981.72;4905753;29;20059;-50
2022/10/31 08:28:58;;;;;;;7.95;4.45;;;14.20;92.50;;;17.07;54.18;97990.88;4921706;29;20262;-54
2022/10/31 08:31:30;;;;;;;5.75;4.63;;;14.30;92.40;;;17.15;54.13;97975.63;4921453;29;20044;-53
2022/10/31 08:34:20;;;;;;;6.85;3.92;;;14.40;92.10;;;17.22;54.28;97971.97;4908894;29;20072;-53
2022/10/31 08:37:07;;;;;;;7.40;5.38;;;14.50;91.90;;;17.28;54.14;97960.41;4907712;29;20046;-53
2022/10/31 08:39:47;;;;;;;9.10;5.07;;;14.60;91.50;;;17.37;54.16;97968.34;4921307;29;20056;-52
2022/10/31 08:42:15;;;;;;;7.68;4.57;;;14.70;91.40;;;17.45;54.05;97963.63;4905436;29;20060;-50
2022/10/31 08:44:43;;;;;;;9.85;4.97;;;14.70;91.30;;;17.52;54.56;97960.97;4905467;29;20079;-51
2022/10/31 08:47:11;;;;;;;10.43;5.10;;;14.80;92.60;;;17.56;55.13;97961.41;4921261;29;20256;-49
2022/10/31 08:49:40;;;;;;;12.85;5.72;;;14.80;94.30;;;17.59;55.38;97969.09;4921399;29;20067;-53
2022/10/31 08:52:08;;;;;;;7.57;4.85;;;14.80;94.90;;;17.59;55.27;97974.50;4921218;29;20049;-52
2022/10/31 08:54:42;;;;;;;8.18;5.18;;;14.80;95.60;;;17.58;55.31;97970.13;4905360;29;20048;-51
2022/10/31 08:57:30;;;;;;;6.88;4.90;;;14.80;95.60;;;17.57;55.09;97966.59;4907945;29;20228;-49
2022/10/31 08:59:59;;;;;;;9.07;5.80;;;14.70;95.60;;;17.54;55.13;97961.59;4919904;29;20058;-52
2022/10/31 09:02:43;;;;;;;12.13;5.38;;;14.60;95.40;;;17.56;54.98;97964.09;4909187;29;20041;-51
2022/10/31 09:05:13;;;;;;;8.88;5.18;;;14.60;95.50;;;17.55;54.77;97967.84;4920708;29;20052;-53
2022/10/31 09:07:41;;;;;;;6.78;4.95;;;14.60;95.00;;;17.55;54.84;97957.06;4906579;29;20059;-52
2022/10/31 09:10:10;;;;;;;14.80;6.57;;;14.60;94.90;;;17.52;54.98;97959.13;4905642;29;20062;-52
2022/10/31 09:12:38;;;;;;;15.10;6.07;;;14.60;95.10;;;17.55;54.83;97963.28;4921541;29;20044;-51
2022/10/31 09:15:27;;;;;;;11.52;6.20;;;14.60;95.10;;;17.55;55.07;97960.59;4908332;29;20041;-51
2022/10/31 09:18:15;;;;;;;22.50;7.53;;;14.60;95.30;;;17.59;55.07;97953.78;4919048;29;20048;-49
2022/10/31 09:21:10;;;;;;;29.83;9.70;;;14.70;95.60;;;17.60;55.31;97957.28;4907358;29;20347;-53
2022/10/31 09:23:38;;;;;;;34.85;8.55;;;14.70;95.80;;;17.59;55.26;97964.53;4920894;29;20224;-53
2022/10/31 09:26:07;;;;;;;44.20;12.40;;;14.70;95.80;;;17.64;55.26;97954.03;4905571;29;20057;-54
2022/10/31 09:28:44;;;;;;;35.55;9.93;;;14.80;95.90;;;17.67;55.31;97961.69;4905375;29;20059;-55
2022/10/31 09:31:15;;;;;;;31.75;6.63;;;14.80;96.10;;;17.70;55.25;97955.09;4920140;29;20067;-54
2022/10/31 09:33:54;;;;;;;19.95;8.02;;;14.80;96.50;;;17.72;55.53;97947.66;4921101;29;20068;-55
2022/10/31 09:36:38;;;;;;;15.27;5.83;;;14.80;96.80;;;17.79;55.37;97947.66;4907248;29;20055;-53
2022/10/31 09:39:20;;;;;;;9.07;4.20;;;14.80;96.60;;;17.85;54.79;97952.28;4922508;29;20290;-52
2022/10/31 09:42:16;;;;;;;11.20;5.68;;;14.90;95.60;;;17.91;54.93;97954.16;4908381;29;20053;-54
2022/10/31 09:45:19;;;;;;;8.38;5.32;;;15.00;94.90;;;17.97;54.80;97956.09;4908601;29;20052;-50
2022/10/31 09:48:02;;;;;;;9.30;4.97;;;15.00;94.70;;;18.02;54.69;97950.91;4906887;29;20351;-55
2022/10/31 09:50:40;;;;;;;8.63;4.72;;;15.10;94.70;;;18.09;54.49;97954.47;4912983;29;20074;-54
2022/10/31 09:54:00;;;;;;;6.05;4.05;;;15.20;94.20;;;18.19;54.33;97962.16;4851843;29;20054;-51
2022/10/31 09:56:30;;;;;;;;;;;15.30;93.80;;;18.34;54.26;97970.09;4918652;29;20060;-52
2022/10/31 09:59:03;;;;;;;8.40;4.85;;;15.30;92.80;;;18.36;53.91;97968.03;4908357;29;19942;-53
2022/10/31 10:01:57;;;;;;;11.30;5.47;;;15.40;93.30;;;18.41;54.22;97956.63;4907551;29;20048;-52
2022/10/31 10:05:15;;;;;;;10.43;4.73;;;15.50;93.20;;;18.47;54.25;97956.63;4923889;29;20056;-52
2022/10/31 10:08:07;;;;;;;6.47;4.68;;;15.60;92.70;;;18.55;54.02;97954.78;4889486;29;20058;-50
2022/10/31 10:11:14;;;;;;;14.40;5.72;;;15.70;93.10;;;18.63;54.12;97950.03;4924646;29;20052;-54
2022/10/31 10:14:19;;;;;;;8.98;4.60;;;15.80;92.60;;;18.70;54.14;97950.03;4924080;29;20048;-53
2022/10/31 10:17:17;;;;;;;10.55;5.18;;;15.90;92.40;;;18.75;54.17;97946.75;4909666;29;20048;-54
2022/10/31 10:20:25;;;;;;;10.25;5.18;;;16.00;92.10;;;18.83;53.94;97946.56;4909294;29;20238;-56
2022/10/31 10:23:14;;;;;;;8.32;5.18;;;16.10;91.70;;;18.88;54.00;97942.22;4907757;29;20063;-55
2022/10/31 10:25:49;;;;;;;12.32;5.10;;;16.20;91.50;;;18.93;54.00;97938.06;4908522;29;20058;-52
2022/10/31 10:28:40;;;;;;;12.15;5.95;;;16.20;91.70;;;19.02;54.12;97934.13;4923491;29;20048;-54
2022/10/31 10:31:28;;;;;;;9.55;5.35;;;16.20;91.30;;;19.10;53.63;97939.28;4922253;29;20352;-55
2022/10/31 10:34:18;;;;;;;9.88;5.95;;;16.30;91.30;;;19.15;53.80;97930.56;4922890;29;20080;-54
2022/10/31 10:37:27;;;;;;;10.35;5.45;;;16.30;91.40;;;19.22;53.91;97934.09;4921912;29;20057;-56
2022/10/31 10:40:21;;;;;;;8.80;5.40;;;16.40;91.10;;;19.26;53.61;97919.97;4909167;29;20220;-56
2022/10/31 10:43:18;;;;;;;10.15;5.68;;;16.30;91.50;;;19.32;53.65;97922.88;4894867;29;20052;-56
2022/10/31 10:49:18;;;;;;;8.38;5.30;;;16.50;91.60;;;19.40;53.61;97911.84;4893919;29;20067;-54
2022/10/31 10:52:07;;;;;;;10.85;5.35;;;16.60;90.90;;;19.42;53.64;97918.69;4893074;29;20059;-56
2022/10/31 10:55:13;;;;;;;10.32;6.28;;;16.60;90.60;;;19.54;53.36;97916.19;4897532;29;20048;-57
2022/10/31 10:57:56;;;;;;;11.82;6.82;;;16.70;90.00;;;19.59;53.06;97918.22;4892428;29;20053;-56
2022/10/31 11:00:40;;;;;;;8.60;5.32;;;16.80;89.40;;;19.64;53.04;97908.47;4908995;29;20188;-57
2022/10/31 11:03:10;;;;;;;10.75;5.70;;;16.80;89.10;;;19.65;52.64;97899.28;4908627;29;20373;-56
2022/10/31 11:05:58;;;;;;;9.63;6.00;;;16.90;88.60;;;19.71;52.72;97897.63;4907031;29;20052;-55